Time;durP1;ratioP1;P1;durP2;ratioP2;P2;SDS_P1;SDS_P2;PMS_P1;PMS_P2;Temp;Humidity;BMP_temperature;BMP_pressure;BME280_temperature;BME280_humidity;BME280_pressure;Samples;Min_cycle;Max_cycle;Signal;HPM_P1;HPM_P2
2022/05/29 00:00:04;;;;;;;4.32;2.10;;;;;;;15.33;53.37;99318.16;335889;29;1662;-72
2022/05/29 00:00:17;;;;;;;4.35;2.08;;;;;;;15.34;52.88;99317.25;336006;29;1587;-70
2022/05/29 00:00:30;;;;;;;5.38;2.20;;;;;;;15.33;53.58;99319.03;336697;29;1326;-71
2022/05/29 00:00:42;;;;;;;5.88;2.25;;;;;;;15.32;52.98;99324.34;337447;29;775;-72
2022/05/29 00:00:54;;;;;;;5.88;2.10;;;;;;;15.31;53.29;99320.03;337925;29;1059;-71
2022/05/29 00:01:07;;;;;;;4.72;2.03;;;;;;;15.30;52.57;99319.19;336811;29;1202;-71
2022/05/29 00:01:19;;;;;;;3.88;1.90;;;;;;;15.31;51.57;99322.66;337066;29;1059;-73
2022/05/29 00:01:32;;;;;;;3.57;1.90;;;;;;;15.29;52.55;99321.91;335832;29;1217;-71
2022/05/29 00:01:45;;;;;;;3.78;1.80;;;;;;;15.30;52.46;99318.38;335904;29;828;-72
2022/05/29 00:01:58;;;;;;;3.85;1.80;;;;;;;15.27;52.22;99321.16;335789;29;1159;-71
2022/05/29 00:02:10;;;;;;;4.30;1.80;;;;;;;15.28;51.90;99321.06;337033;29;1066;-71
2022/05/29 00:02:23;;;;;;;4.00;1.80;;;;;;;15.31;51.99;99325.28;337142;29;1384;-71
2022/05/29 00:02:35;;;;;;;3.58;1.77;;;;;;;15.29;51.81;99312.28;337111;29;1097;-72
2022/05/29 00:02:48;;;;;;;2.80;1.83;;;;;;;15.28;51.27;99315.00;337238;29;1201;-72
2022/05/29 00:03:00;;;;;;;3.45;1.90;;;;;;;15.30;51.50;99323.59;336840;29;1202;-71
2022/05/29 00:03:12;;;;;;;4.18;1.80;;;;;;;15.31;51.16;99322.66;337407;29;1178;-71
2022/05/29 00:03:24;;;;;;;3.60;1.73;;;;;;;15.31;51.21;99325.28;338096;29;1033;-71
2022/05/29 00:03:36;;;;;;;3.88;1.80;;;;;;;15.31;51.80;99325.28;338051;29;1066;-71
2022/05/29 00:03:49;;;;;;;3.08;1.98;;;;;;;15.32;51.40;99321.75;338049;29;948;-71
2022/05/29 00:04:02;;;;;;;2.70;1.80;;;;;;;15.32;51.55;99326.97;338334;29;1108;-71
2022/05/29 00:04:14;;;;;;;2.78;1.75;;;;;;;15.32;51.81;99326.97;338234;29;1075;-71
2022/05/29 00:04:26;;;;;;;3.42;1.85;;;;;;;15.29;51.68;99321.91;338595;29;1059;-71
2022/05/29 00:04:39;;;;;;;3.88;2.00;;;;;;;15.29;51.44;99319.28;338594;29;1051;-71
2022/05/29 00:04:51;;;;;;;4.70;1.90;;;;;;;15.30;51.59;99323.59;338677;29;782;-71
2022/05/29 00:05:04;;;;;;;4.65;1.90;;;;;;;15.32;51.36;99322.56;338564;29;1063;-71
2022/05/29 00:05:17;;;;;;;3.95;1.80;;;;;;;15.32;51.54;99317.34;338390;29;1654;-71
2022/05/29 00:05:29;;;;;;;3.22;1.95;;;;;;;15.32;51.39;99319.97;338264;29;1113;-71
2022/05/29 00:05:42;;;;;;;3.38;2.00;;;;;;;15.32;51.50;99324.34;338630;29;1001;-71
2022/05/29 00:05:55;;;;;;;3.70;1.92;;;;;;;15.32;50.89;99321.75;338104;29;1167;-73
2022/05/29 00:06:10;;;;;;;4.35;1.80;;;;;;;15.32;50.94;99314.72;337331;29;1075;-71
2022/05/29 00:06:23;;;;;;;4.57;1.90;;;;;;;15.31;52.32;99322.66;336223;29;894;-71
2022/05/29 00:06:40;;;;;;;4.32;1.80;;;;;;;15.28;53.00;99317.63;335847;29;1354;-71
2022/05/29 00:06:55;;;;;;;3.65;2.00;;;;;;;15.30;52.86;99319.19;335955;29;1188;-72
2022/05/29 00:07:11;;;;;;;3.38;2.13;;;;;;;15.28;53.07;99318.44;335823;29;1109;-71
2022/05/29 00:07:23;;;;;;;3.80;2.17;;;;;;;15.28;52.89;99317.63;336890;29;1162;-71
2022/05/29 00:07:36;;;;;;;3.92;2.10;;;;;;;15.28;52.80;99321.06;337283;29;748;-71
2022/05/29 00:07:49;;;;;;;3.83;2.10;;;;;;;15.28;53.09;99321.06;336920;29;1084;-71
2022/05/29 00:08:02;;;;;;;3.90;2.08;;;;;;;15.30;52.87;99318.38;336701;29;1093;-71
2022/05/29 00:08:32;;;;;;;4.88;2.22;;;;;;;15.30;52.50;99318.38;338122;29;1133;-71
2022/05/29 00:08:45;;;;;;;4.32;1.95;;;;;;;15.30;53.17;99313.97;338583;29;1088;-71
2022/05/29 00:08:57;;;;;;;4.10;1.90;;;;;;;15.29;53.39;99321.91;338431;29;1165;-71
2022/05/29 00:09:13;;;;;;;4.85;1.92;;;;;;;15.28;53.60;99309.75;338669;29;1104;-72
2022/05/29 00:09:38;;;;;;;4.25;2.00;;;;;;;15.27;52.20;99318.53;338469;29;1036;-71
2022/05/29 00:09:52;;;;;;;3.05;1.80;;;;;;;15.29;52.17;99319.28;338607;29;1233;-71
2022/05/29 00:10:07;;;;;;;2.63;1.80;;;;;;;15.28;53.23;99317.63;338148;29;1173;-71
2022/05/29 00:10:19;;;;;;;4.38;1.92;;;;;;;15.28;53.24;99320.22;338543;29;967;-71
2022/05/29 00:10:35;;;;;;;5.28;2.00;;;;;;;15.29;53.32;99316.66;338395;29;1090;-72
2022/05/29 00:10:47;;;;;;;4.22;1.90;;;;;;;15.28;53.58;99315.00;338469;29;1075;-71
2022/05/29 00:11:00;;;;;;;4.32;1.92;;;;;;;15.28;53.13;99313.22;338414;29;1097;-70
2022/05/29 00:11:14;;;;;;;5.00;2.00;;;;;;;15.29;52.87;99311.44;338434;29;1074;-71
2022/05/29 00:11:27;;;;;;;4.47;2.10;;;;;;;15.26;53.19;99316.84;338480;29;1205;-71
2022/05/29 00:11:39;;;;;;;4.80;2.10;;;;;;;15.25;52.93;99321.25;338661;29;1937;-70
2022/05/29 00:11:52;;;;;;;5.05;2.03;;;;;;;15.26;53.36;99311.63;338041;29;2029;-72
2022/05/29 00:12:05;;;;;;;5.20;2.10;;;;;;;15.27;53.00;99313.28;338187;29;1052;-72
2022/05/29 00:12:20;;;;;;;4.35;1.92;;;;;;;15.25;52.87;99320.38;338221;29;1130;-72
2022/05/29 00:12:33;;;;;;;2.25;1.73;;;;;;;15.25;52.93;99323.00;339042;29;1489;-71
2022/05/29 00:12:45;;;;;;;3.78;1.90;;;;;;;15.26;53.08;99322.09;338410;29;1087;-71
2022/05/29 00:12:58;;;;;;;4.72;2.10;;;;;;;15.27;52.74;99315.91;338371;29;1023;-73
2022/05/29 00:13:13;;;;;;;5.38;2.20;;;;;;;15.28;52.59;99315.00;338225;29;1324;-71
2022/05/29 00:13:26;;;;;;;3.75;2.00;;;;;;;15.29;52.43;99311.44;338310;29;1192;-72
2022/05/29 00:13:38;;;;;;;3.80;1.80;;;;;;;15.29;52.47;99319.28;338485;29;1083;-71
2022/05/29 00:13:50;;;;;;;4.38;1.80;;;;;;;15.31;52.05;99317.41;338549;29;1578;-71
2022/05/29 00:14:03;;;;;;;4.35;1.90;;;;;;;15.31;51.80;99309.56;338427;29;1101;-71
2022/05/29 00:14:16;;;;;;;5.38;2.08;;;;;;;15.30;51.69;99310.50;339421;29;1238;-71
2022/05/29 00:14:28;;;;;;;4.22;2.08;;;;;;;15.28;51.35;99315.00;339378;29;1232;-71
2022/05/29 00:14:41;;;;;;;3.60;2.03;;;;;;;15.26;52.02;99319.47;338548;29;3232;-71
2022/05/29 00:14:53;;;;;;;4.22;2.10;;;;;;;15.26;52.16;99311.63;338609;29;2579;-71
2022/05/29 00:15:06;;;;;;;4.65;2.08;;;;;;;15.27;52.06;99315.91;339583;29;1061;-71
2022/05/29 00:15:18;;;;;;;6.20;2.10;;;;;;;15.27;51.84;99313.28;339574;29;1183;-71
2022/05/29 00:15:30;;;;;;;5.07;2.00;;;;;;;15.29;51.66;99311.44;339784;29;1274;-71
2022/05/29 00:15:42;;;;;;;3.25;1.90;;;;;;;15.29;51.43;99321.91;339866;29;1100;-72
2022/05/29 00:15:55;;;;;;;2.63;1.92;;;;;;;15.31;51.41;99312.19;339096;29;1229;-71
2022/05/29 00:16:07;;;;;;;3.08;1.92;;;;;;;15.31;51.48;99310.44;339632;29;1061;-71
2022/05/29 00:16:19;;;;;;;3.30;1.90;;;;;;;15.32;52.05;99313.88;339379;29;1104;-71
2022/05/29 00:16:31;;;;;;;3.97;2.00;;;;;;;15.32;51.95;99317.34;339242;29;1903;-72
2022/05/29 00:16:44;;;;;;;4.03;2.20;;;;;;;15.31;52.70;99312.19;339343;29;1109;-72
2022/05/29 00:16:57;;;;;;;4.43;2.20;;;;;;;15.30;52.49;99315.75;339327;29;1052;-71
2022/05/29 00:17:09;;;;;;;4.22;2.03;;;;;;;15.31;52.65;99314.81;339157;29;1076;-71
2022/05/29 00:17:22;;;;;;;3.95;2.00;;;;;;;15.30;52.81;99307.91;339162;29;1024;-71
2022/05/29 00:17:33;;;;;;;3.20;1.80;;;;;;;15.28;53.16;99309.75;339304;29;1063;-71
2022/05/29 00:17:45;;;;;;;3.05;1.73;;;;;;;15.26;52.51;99309.00;339323;29;1136;-72
2022/05/29 00:17:57;;;;;;;3.30;1.75;;;;;;;15.25;52.62;99312.53;339272;29;1122;-71
2022/05/29 00:18:09;;;;;;;3.95;1.80;;;;;;;15.27;52.45;99310.66;339514;29;1047;-71
2022/05/29 00:18:21;;;;;;;3.65;1.90;;;;;;;15.24;52.22;99309.09;339546;29;1046;-72
2022/05/29 00:18:36;;;;;;;4.88;1.90;;;;;;;15.24;52.11;99308.25;339549;29;1104;-72
2022/05/29 00:18:48;;;;;;;4.10;1.80;;;;;;;15.26;52.20;99311.63;339441;29;1031;-71
2022/05/29 00:19:00;;;;;;;5.30;1.90;;;;;;;15.25;51.78;99309.91;339716;29;1016;-71
2022/05/29 00:19:13;;;;;;;4.95;1.88;;;;;;;15.26;51.60;99311.63;339919;29;1864;-72
2022/05/29 00:19:25;;;;;;;4.28;1.73;;;;;;;15.28;51.64;99312.38;339952;29;1095;-71
2022/05/29 00:19:38;;;;;;;3.83;1.70;;;;;;;15.31;51.75;99306.94;340059;29;874;-72
2022/05/29 00:19:50;;;;;;;3.70;1.90;;;;;;;15.30;52.23;99315.75;339624;29;1043;-71
2022/05/29 00:20:04;;;;;;;4.53;1.95;;;;;;;15.29;52.26;99306.19;339913;29;1906;-71
2022/05/29 00:20:16;;;;;;;4.30;1.85;;;;;;;15.29;52.70;99311.44;339894;29;1128;-72
2022/05/29 00:20:29;;;;;;;4.90;1.90;;;;;;;15.28;52.38;99307.97;339520;29;1042;-71
2022/05/29 00:20:43;;;;;;;5.00;1.83;;;;;;;15.28;52.53;99309.75;339589;29;1079;-71
2022/05/29 00:20:57;;;;;;;4.90;1.85;;;;;;;15.31;52.16;99312.19;339530;29;963;-71
2022/05/29 00:21:10;;;;;;;3.53;1.98;;;;;;;15.31;52.22;99312.19;339899;29;1062;-71
2022/05/29 00:21:23;;;;;;;3.30;2.00;;;;;;;15.33;51.97;99307.69;339570;29;1184;-71
2022/05/29 00:21:36;;;;;;;4.38;1.90;;;;;;;15.31;52.79;99304.31;339551;29;1028;-72
2022/05/29 00:21:49;;;;;;;4.50;1.85;;;;;;;15.30;52.52;99307.91;339994;29;817;-71
2022/05/29 00:22:02;;;;;;;3.85;2.08;;;;;;;15.30;53.06;99311.34;339564;29;1200;-71
2022/05/29 00:22:19;;;;;;;2.97;2.00;;;;;;;15.30;52.80;99307.91;339587;29;1067;-71
2022/05/29 00:22:32;;;;;;;2.88;2.00;;;;;;;15.27;53.27;99308.06;339456;29;876;-71
2022/05/29 00:22:44;;;;;;;4.03;2.13;;;;;;;15.27;52.80;99302.81;339551;29;1268;-71
2022/05/29 00:22:56;;;;;;;4.65;2.05;;;;;;;15.27;52.59;99303.69;339548;29;1155;-71
2022/05/29 00:23:08;;;;;;;4.70;2.03;;;;;;;15.27;52.84;99308.91;339417;29;1146;-71
2022/05/29 00:23:21;;;;;;;4.20;1.95;;;;;;;15.27;52.65;99302.81;339941;29;1091;-71
2022/05/29 00:23:41;;;;;;;4.25;2.03;;;;;;;15.28;52.81;99310.59;338458;29;1042;-71
2022/05/29 00:23:53;;;;;;;4.07;1.90;;;;;;;15.27;53.00;99302.81;338372;29;1120;-71
2022/05/29 00:24:07;;;;;;;3.30;1.90;;;;;;;15.28;52.80;99302.75;338315;29;1087;-71
2022/05/29 00:24:19;;;;;;;3.72;2.03;;;;;;;15.27;52.49;99306.31;338229;29;1256;-72
2022/05/29 00:24:32;;;;;;;5.00;2.17;;;;;;;15.28;51.83;99304.53;337973;29;1124;-71
2022/05/29 00:24:46;;;;;;;4.30;2.10;;;;;;;15.29;51.42;99306.19;337898;29;1107;-71
2022/05/29 00:24:58;;;;;;;3.88;1.83;;;;;;;15.27;52.15;99302.81;338431;29;1105;-71
2022/05/29 00:25:12;;;;;;;3.72;1.80;;;;;;;15.27;52.29;99303.69;337963;29;1306;-71
2022/05/29 00:25:24;;;;;;;2.67;1.80;;;;;;;15.26;52.66;99301.16;338063;29;1027;-72
2022/05/29 00:25:36;;;;;;;2.67;1.92;;;;;;;15.26;52.80;99303.75;338619;29;1290;-72
2022/05/29 00:25:51;;;;;;;2.78;2.08;;;;;;;15.24;52.86;99305.63;339406;29;1052;-72
2022/05/29 00:26:03;;;;;;;3.30;2.10;;;;;;;15.21;52.96;99305.78;339958;29;831;-71
2022/05/29 00:26:18;;;;;;;3.70;1.90;;;;;;;15.20;52.54;99302.34;339633;29;1208;-72
2022/05/29 00:26:30;;;;;;;3.40;1.90;;;;;;;15.21;52.63;99303.16;339245;29;1858;-72
2022/05/29 00:26:44;;;;;;;3.28;1.90;;;;;;;15.19;52.34;99303.25;339691;29;1243;-72
2022/05/29 00:26:56;;;;;;;4.05;1.90;;;;;;;15.18;52.09;99299.78;339255;29;1289;-72
2022/05/29 00:27:11;;;;;;;3.75;1.80;;;;;;;15.17;53.01;99303.38;338361;29;1169;-71
2022/05/29 00:27:23;;;;;;;3.15;1.80;;;;;;;15.18;53.06;99306.81;338345;29;1043;-72
2022/05/29 00:27:37;;;;;;;3.53;1.90;;;;;;;15.17;53.24;99300.75;338122;29;1056;-72
2022/05/29 00:27:49;;;;;;;5.13;1.90;;;;;;;15.18;52.56;99305.03;338117;29;1229;-71
2022/05/29 00:28:01;;;;;;;5.55;1.92;;;;;;;15.20;52.46;99306.72;338019;29;1268;-71
2022/05/29 00:28:13;;;;;;;3.33;1.73;;;;;;;15.18;52.64;99305.03;338085;29;1262;-71
2022/05/29 00:28:25;;;;;;;3.65;1.80;;;;;;;15.18;53.08;99301.56;338025;29;1145;-71
2022/05/29 00:28:37;;;;;;;4.00;1.90;;;;;;;15.18;53.31;99305.03;336816;29;1246;-71
2022/05/29 00:28:49;;;;;;;4.45;1.92;;;;;;;15.17;53.68;99307.72;336634;29;1230;-71
2022/05/29 00:29:02;;;;;;;3.10;2.00;;;;;;;15.18;53.58;99310.28;336689;29;1301;-71
2022/05/29 00:29:14;;;;;;;3.03;1.90;;;;;;;15.18;53.89;99310.28;337665;29;1156;-72
2022/05/29 00:29:26;;;;;;;4.00;1.83;;;;;;;15.19;53.31;99305.88;338400;29;1223;-71
2022/05/29 00:29:39;;;;;;;5.18;2.00;;;;;;;15.20;52.79;99301.50;339474;29;1246;-71
2022/05/29 00:29:51;;;;;;;5.80;2.03;;;;;;;15.20;52.82;99306.72;339866;29;896;-71
2022/05/29 00:30:08;;;;;;;5.20;2.00;;;;;;;15.17;52.94;99305.13;339587;29;1085;-71
2022/05/29 00:30:20;;;;;;;4.90;2.00;;;;;;;15.16;53.04;99306.91;339539;29;1213;-71
2022/05/29 00:30:32;;;;;;;4.07;1.90;;;;;;;15.17;52.99;99300.75;339411;29;1245;-70
2022/05/29 00:30:45;;;;;;;3.95;2.00;;;;;;;15.20;52.88;99311.97;339443;29;1071;-72
2022/05/29 00:30:57;;;;;;;3.78;1.90;;;;;;;15.20;52.75;99306.72;339448;29;1113;-71
2022/05/29 00:31:10;;;;;;;3.58;1.80;;;;;;;15.17;52.86;99303.38;339615;29;1104;-71
2022/05/29 00:31:22;;;;;;;3.97;1.85;;;;;;;15.16;53.43;99301.66;339499;29;1003;-72
2022/05/29 00:31:35;;;;;;;4.55;1.90;;;;;;;15.15;53.49;99305.22;339434;29;1023;-71
2022/05/29 00:31:47;;;;;;;4.05;1.92;;;;;;;15.14;53.26;99300.91;339712;29;1059;-71
2022/05/29 00:31:59;;;;;;;3.85;1.92;;;;;;;15.14;53.18;99303.53;339728;29;1229;-70
2022/05/29 00:32:11;;;;;;;3.55;1.98;;;;;;;15.13;54.17;99299.22;337099;29;3126;-70
2022/05/29 00:32:23;;;;;;;4.38;1.90;;;;;;;15.13;54.12;99300.97;339422;29;1376;-70
2022/05/29 00:32:35;;;;;;;3.95;1.80;;;;;;;15.14;53.47;99298.28;340045;29;1100;-70
2022/05/29 00:32:47;;;;;;;4.63;1.80;;;;;;;15.11;53.75;99303.72;339057;29;1787;-70
2022/05/29 00:32:59;;;;;;;4.13;1.80;;;;;;;15.12;53.55;99300.16;339557;29;1467;-70
2022/05/29 00:33:12;;;;;;;4.18;2.00;;;;;;;15.13;53.53;99307.09;339189;29;1067;-70
2022/05/29 00:33:24;;;;;;;3.72;2.10;;;;;;;15.15;53.06;99304.34;339952;29;1177;-69
2022/05/29 00:33:36;;;;;;;3.97;2.00;;;;;;;15.14;53.36;99300.91;338497;29;1120;-70
2022/05/29 00:33:49;;;;;;;3.97;1.90;;;;;;;15.13;53.60;99301.84;338589;29;1319;-70
2022/05/29 00:34:01;;;;;;;3.95;1.83;;;;;;;15.13;53.75;99301.84;338448;29;1060;-70
2022/05/29 00:34:13;;;;;;;4.85;1.85;;;;;;;15.13;53.40;99301.84;338506;29;1078;-70
2022/05/29 00:34:25;;;;;;;4.50;1.80;;;;;;;15.11;53.17;99301.09;338344;29;1724;-70
2022/05/29 00:34:38;;;;;;;4.07;1.80;;;;;;;15.10;53.48;99296.78;338323;29;1208;-69
2022/05/29 00:34:50;;;;;;;3.25;1.80;;;;;;;15.10;53.46;99304.63;337792;29;1059;-70
2022/05/29 00:35:03;;;;;;;3.60;1.70;;;;;;;15.09;53.23;99300.34;337923;29;1302;-70
2022/05/29 00:35:15;;;;;;;3.90;1.70;;;;;;;15.09;52.92;99305.56;338425;29;1055;-70
2022/05/29 00:35:28;;;;;;;3.45;1.75;;;;;;;15.10;52.29;99306.41;338332;29;1351;-70
2022/05/29 00:35:42;;;;;;;3.55;1.80;;;;;;;15.10;52.27;99301.19;339280;29;1081;-70
2022/05/29 00:35:54;;;;;;;2.92;1.65;;;;;;;15.11;52.14;99308.09;339212;29;1222;-70
2022/05/29 00:36:13;;;;;;;2.63;1.63;;;;;;;15.12;52.30;99296.69;339498;29;1080;-70
2022/05/29 00:36:32;;;;;;;4.30;1.80;;;;;;;15.13;52.72;99304.47;338568;29;1072;-70
2022/05/29 00:36:44;;;;;;;4.72;1.70;;;;;;;15.11;53.04;99300.22;339130;29;1060;-70
2022/05/29 00:37:00;;;;;;;3.63;1.65;;;;;;;15.12;52.82;99300.16;339774;29;954;-70
2022/05/29 00:37:13;;;;;;;3.70;1.73;;;;;;;15.12;52.81;99300.16;339625;29;1060;-70
2022/05/29 00:37:25;;;;;;;6.07;2.08;;;;;;;15.11;52.00;99301.09;339182;29;1251;-70
2022/05/29 00:37:40;;;;;;;5.90;2.10;;;;;;;15.11;51.78;99297.63;339662;29;1301;-70
2022/05/29 00:37:52;;;;;;;4.22;2.00;;;;;;;15.10;52.40;99306.41;339585;29;1089;-70
2022/05/29 00:38:07;;;;;;;4.50;1.90;;;;;;;15.09;52.02;99295.09;338263;29;1056;-70
2022/05/29 00:38:20;;;;;;;4.60;1.80;;;;;;;15.11;52.05;99303.72;338104;29;1911;-70
2022/05/29 00:38:40;;;;;;;3.88;1.80;;;;;;;15.08;51.48;99303.88;337982;29;1184;-70
2022/05/29 00:38:52;;;;;;;3.08;1.88;;;;;;;15.09;51.29;99305.56;338123;29;1093;-70
2022/05/29 00:39:04;;;;;;;2.97;1.88;;;;;;;15.08;51.68;99303.88;338046;29;1132;-70
2022/05/29 00:39:17;;;;;;;3.45;1.90;;;;;;;15.06;51.71;99300.50;337993;29;1036;-70
2022/05/29 00:39:29;;;;;;;4.00;2.00;;;;;;;15.06;51.60;99300.50;338262;29;1105;-70
2022/05/29 00:39:42;;;;;;;5.03;1.92;;;;;;;15.04;51.52;99294.50;338024;29;1058;-70
2022/05/29 00:39:54;;;;;;;5.28;1.83;;;;;;;15.02;51.46;99298.16;337956;29;1069;-70
2022/05/29 00:40:21;;;;;;;4.68;1.80;;;;;;;15.01;51.20;99297.31;337338;29;1761;-70
2022/05/29 00:40:45;;;;;;;3.90;2.00;;;;;;;15.03;51.25;99298.06;338128;29;1175;-70
2022/05/29 00:41:17;;;;;;;3.83;1.80;;;;;;;15.05;50.94;99288.34;338531;29;1273;-70
2022/05/29 00:41:35;;;;;;;3.25;2.00;;;;;;;15.07;51.00;99302.19;339062;29;1189;-70
2022/05/29 00:41:47;;;;;;;4.45;2.03;;;;;;;15.06;50.83;99297.03;339612;29;994;-70
2022/05/29 00:42:06;;;;;;;4.82;1.88;;;;;;;15.09;50.74;99295.09;339556;29;1091;-70
2022/05/29 00:42:22;;;;;;;2.90;1.70;;;;;;;15.10;50.74;99301.19;339462;29;1215;-70
2022/05/29 00:42:34;;;;;;;3.97;1.88;;;;;;;15.08;50.48;99301.25;339528;29;1234;-70
2022/05/29 00:42:46;;;;;;;4.65;2.00;;;;;;;15.09;50.35;99304.72;339634;29;1148;-70
2022/05/29 00:42:58;;;;;;;4.15;1.80;;;;;;;15.08;50.35;99297.81;339383;29;1271;-70
2022/05/29 00:43:11;;;;;;;4.35;1.80;;;;;;;15.07;49.74;99301.34;339358;29;1080;-70
2022/05/29 00:43:24;;;;;;;4.55;1.70;;;;;;;15.09;49.84;99295.09;339600;29;1264;-70
2022/05/29 00:43:37;;;;;;;3.53;1.58;;;;;;;15.09;50.11;99289.88;339499;29;1169;-70
2022/05/29 00:44:12;;;;;;;3.00;1.60;;;;;;;15.10;49.74;99295.94;339634;29;1107;-70
2022/05/29 00:44:29;;;;;;;4.53;1.90;;;;;;;15.10;49.84;99299.41;339545;29;1021;-70
2022/05/29 00:44:42;;;;;;;4.65;1.70;;;;;;;15.08;50.92;99298.63;339585;29;1161;-70
2022/05/29 00:44:54;;;;;;;4.13;1.60;;;;;;;15.07;50.97;99296.97;339587;29;1044;-70
2022/05/29 00:45:15;;;;;;;3.85;1.70;;;;;;;15.08;51.37;99292.56;339433;29;1059;-70
2022/05/29 00:45:28;;;;;;;4.57;1.83;;;;;;;15.06;50.95;99292.66;339400;29;1205;-70
2022/05/29 00:45:51;;;;;;;4.40;1.90;;;;;;;15.00;50.80;99290.38;339678;29;1297;-70
2022/05/29 00:46:05;;;;;;;3.80;1.80;;;;;;;14.97;51.03;99290.56;339415;29;1141;-70
2022/05/29 00:46:18;;;;;;;3.65;1.80;;;;;;;14.94;51.01;99285.50;339718;29;1112;-70
2022/05/29 00:46:31;;;;;;;3.20;1.60;;;;;;;14.94;50.56;99288.09;339631;29;1045;-70
2022/05/29 00:46:45;;;;;;;3.85;1.65;;;;;;;14.94;50.76;99291.56;339652;29;1099;-70
2022/05/29 00:47:11;;;;;;;3.60;1.65;;;;;;;14.96;50.21;99291.47;339596;29;1047;-70
2022/05/29 00:47:23;;;;;;;3.40;1.50;;;;;;;14.96;49.76;99283.63;339683;29;1190;-70
2022/05/29 00:47:35;;;;;;;3.22;1.40;;;;;;;14.98;50.11;99287.00;339551;29;1107;-70
2022/05/29 00:47:48;;;;;;;4.15;1.58;;;;;;;14.95;50.50;99284.53;339538;29;1055;-70
2022/05/29 00:48:04;;;;;;;4.20;1.60;;;;;;;14.94;50.85;99290.72;339682;29;1034;-70
2022/05/29 00:48:18;;;;;;;4.28;1.60;;;;;;;14.94;50.37;99281.09;336721;29;2959;-71
2022/05/29 00:48:30;;;;;;;4.45;1.70;;;;;;;14.93;50.45;99289.88;339596;29;1185;-70
2022/05/29 00:48:42;;;;;;;4.00;1.70;;;;;;;14.92;50.42;99282.13;339447;29;1108;-70
2022/05/29 00:48:54;;;;;;;3.63;1.58;;;;;;;14.88;50.60;99281.44;339723;29;1046;-70
2022/05/29 00:49:08;;;;;;;4.32;1.67;;;;;;;14.88;50.56;99288.47;339602;29;1124;-70
2022/05/29 00:49:32;;;;;;;4.43;1.70;;;;;;;14.91;50.32;99288.25;339788;29;1182;-70
2022/05/29 00:49:47;;;;;;;3.78;1.55;;;;;;;14.93;50.07;99289.03;339479;29;1116;-70
2022/05/29 00:49:59;;;;;;;3.70;1.58;;;;;;;14.93;50.19;99289.03;339635;29;1181;-70
2022/05/29 00:50:12;;;;;;;3.25;1.58;;;;;;;14.93;49.90;99281.16;339400;29;1285;-70
2022/05/29 00:50:24;;;;;;;3.00;1.50;;;;;;;14.95;50.21;99281.94;339429;29;1043;-70
2022/05/29 00:50:36;;;;;;;3.55;1.50;;;;;;;14.96;50.30;99283.63;339364;29;1075;-70
2022/05/29 00:50:51;;;;;;;3.58;1.50;;;;;;;14.95;50.70;99285.41;339172;29;1046;-70
2022/05/29 00:51:10;;;;;;;3.42;1.50;;;;;;;14.97;50.73;99286.16;339982;29;1088;-70
2022/05/29 00:51:23;;;;;;;3.70;1.50;;;;;;;14.97;51.12;99285.34;339276;29;1169;-70
2022/05/29 00:51:55;;;;;;;4.45;1.52;;;;;;;14.97;51.08;99282.72;339337;29;1077;-70
2022/05/29 00:52:16;;;;;;;5.65;1.75;;;;;;;14.97;51.50;99290.56;338560;29;1735;-70
2022/05/29 00:52:29;;;;;;;4.40;1.65;;;;;;;14.97;51.12;99290.56;338840;29;1343;-70
2022/05/29 00:52:41;;;;;;;3.90;1.63;;;;;;;14.95;51.47;99281.94;339781;29;1031;-70
2022/05/29 00:52:53;;;;;;;4.60;1.75;;;;;;;14.95;51.00;99281.94;339767;29;1184;-70
2022/05/29 00:53:05;;;;;;;4.28;1.80;;;;;;;14.96;50.79;99289.69;339654;29;1246;-70
2022/05/29 00:53:17;;;;;;;3.97;1.73;;;;;;;14.96;50.63;99288.88;338672;29;1043;-70
2022/05/29 00:53:30;;;;;;;2.40;1.60;;;;;;;14.95;50.53;99277.56;339107;29;1374;-70
2022/05/29 00:53:42;;;;;;;2.15;1.40;;;;;;;14.97;50.61;99280.09;339504;29;1186;-70
2022/05/29 00:53:54;;;;;;;2.35;1.40;;;;;;;14.98;50.75;99281.78;339630;29;1230;-70
2022/05/29 00:54:07;;;;;;;3.80;1.45;;;;;;;14.97;50.82;99285.34;339698;29;1024;-70
2022/05/29 00:54:20;;;;;;;4.05;1.55;;;;;;;14.98;50.88;99284.38;339674;29;1341;-70
2022/05/29 00:54:42;;;;;;;3.28;1.58;;;;;;;15.00;50.48;99286.94;339423;29;1364;-70
2022/05/29 00:55:01;;;;;;;2.80;1.58;;;;;;;14.96;51.05;99279.22;339453;29;1068;-70
2022/05/29 00:55:23;;;;;;;2.90;1.70;;;;;;;14.98;51.32;99281.78;339540;29;1111;-70
2022/05/29 00:55:35;;;;;;;3.33;1.75;;;;;;;14.97;51.79;99290.56;339527;29;1063;-72
2022/05/29 00:55:55;;;;;;;2.88;1.60;;;;;;;14.94;51.55;99283.72;339576;29;1083;-72
2022/05/29 00:56:12;;;;;;;3.83;1.70;;;;;;;14.93;51.54;99278.56;339586;29;1401;-72
2022/05/29 00:56:24;;;;;;;4.25;1.88;;;;;;;14.90;50.99;99279.59;339413;29;1104;-71
2022/05/29 00:56:38;;;;;;;4.65;1.80;;;;;;;14.92;50.91;99282.94;339349;29;1235;-71
2022/05/29 00:56:52;;;;;;;5.38;1.85;;;;;;;14.89;50.57;99277.91;339729;29;817;-71
2022/05/29 00:57:04;;;;;;;3.63;1.65;;;;;;;14.87;50.40;99278.91;339447;29;1359;-71
2022/05/29 00:57:19;;;;;;;3.53;1.65;;;;;;;14.88;50.45;99278.00;339706;29;1051;-71
2022/05/29 00:57:34;;;;;;;3.70;1.70;;;;;;;14.90;50.16;99283.97;339222;29;1277;-71
2022/05/29 00:57:54;;;;;;;4.97;1.80;;;;;;;14.91;49.80;99280.41;339395;29;1093;-71
2022/05/29 00:58:06;;;;;;;4.22;1.55;;;;;;;14.92;49.65;99282.13;339505;29;1200;-71
2022/05/29 00:58:22;;;;;;;2.75;1.40;;;;;;;14.92;49.71;99279.50;339264;29;1051;-72
2022/05/29 00:58:35;;;;;;;2.88;1.50;;;;;;;14.92;49.68;99276.88;339573;29;1116;-71
2022/05/29 00:58:47;;;;;;;4.00;1.58;;;;;;;14.92;49.72;99279.50;339409;29;1047;-71
2022/05/29 00:59:00;;;;;;;5.38;1.63;;;;;;;14.93;49.65;99275.94;339817;29;1036;-71
2022/05/29 00:59:20;;;;;;;4.55;1.60;;;;;;;14.93;49.88;99273.31;339569;29;1253;-71
2022/05/29 00:59:33;;;;;;;2.97;1.58;;;;;;;14.94;49.70;99280.25;339547;29;1243;-71
2022/05/29 00:59:46;;;;;;;3.10;1.60;;;;;;;14.94;50.97;99280.25;339514;29;1986;-71
2022/05/29 01:00:03;;;;;;;4.57;2.00;;;;;;;14.92;51.34;99282.94;339649;29;1346;-71
2022/05/29 01:00:20;;;;;;;5.68;2.20;;;;;;;14.91;51.51;99280.41;339780;29;1059;-71
2022/05/29 01:00:33;;;;;;;4.85;1.90;;;;;;;14.91;51.40;99285.66;339440;29;1059;-71
2022/05/29 01:00:47;;;;;;;3.97;1.90;;;;;;;14.91;51.84;99280.41;339589;29;1108;-71
2022/05/29 01:01:02;;;;;;;3.65;1.73;;;;;;;14.91;51.89;99275.19;339482;29;1043;-72
2022/05/29 01:01:14;;;;;;;3.78;1.70;;;;;;;14.90;52.25;99278.75;339536;29;1115;-71
2022/05/29 01:01:28;;;;;;;4.10;1.70;;;;;;;14.90;52.42;99281.38;339739;29;1047;-71
2022/05/29 01:01:41;;;;;;;3.90;1.60;;;;;;;14.88;52.42;99278.81;339854;29;1193;-71
2022/05/29 01:01:55;;;;;;;4.50;1.70;;;;;;;14.88;52.01;99280.59;339394;29;1023;-72
2022/05/29 01:02:08;;;;;;;3.95;1.70;;;;;;;14.87;52.46;99285.00;339683;29;1089;-71
2022/05/29 01:02:21;;;;;;;3.63;1.65;;;;;;;14.87;52.27;99278.91;339498;29;1434;-71
2022/05/29 01:02:33;;;;;;;2.97;1.67;;;;;;;14.86;52.12;99282.47;339629;29;1153;-72
2022/05/29 01:02:46;;;;;;;2.47;1.52;;;;;;;14.87;52.36;99278.91;339656;29;1045;-72
2022/05/29 01:03:00;;;;;;;5.70;1.73;;;;;;;14.86;52.62;99277.22;339396;29;1239;-73
2022/05/29 01:03:13;;;;;;;6.13;1.90;;;;;;;14.85;52.71;99276.41;339036;29;1024;-71
2022/05/29 01:03:25;;;;;;;3.67;1.75;;;;;;;14.85;52.50;99280.75;339299;29;1095;-72
2022/05/29 01:03:38;;;;;;;3.08;1.77;;;;;;;14.83;52.63;99280.88;339605;29;1052;-71
2022/05/29 01:03:50;;;;;;;3.78;1.80;;;;;;;14.84;52.06;99279.94;339186;29;1068;-72
2022/05/29 01:04:02;;;;;;;3.65;1.67;;;;;;;14.84;51.46;99277.31;339324;29;1221;-71
2022/05/29 01:04:15;;;;;;;2.90;1.40;;;;;;;14.87;51.25;99273.66;339156;29;1052;-71
2022/05/29 01:04:29;;;;;;;2.92;1.45;;;;;;;14.87;51.20;99278.91;339226;29;1175;-72
2022/05/29 01:04:42;;;;;;;2.70;1.65;;;;;;;14.87;51.41;99276.28;339289;29;2108;-71
2022/05/29 01:04:56;;;;;;;4.10;1.80;;;;;;;14.87;51.17;99274.53;339486;29;1131;-71
2022/05/29 01:05:11;;;;;;;3.88;1.70;;;;;;;14.87;52.05;99276.28;339424;29;1185;-71
2022/05/29 01:05:25;;;;;;;2.97;1.60;;;;;;;14.88;52.18;99270.13;338368;29;1054;-71
2022/05/29 01:05:37;;;;;;;3.67;1.60;;;;;;;14.87;52.13;99274.53;338924;29;1723;-72
2022/05/29 01:05:50;;;;;;;4.07;1.60;;;;;;;14.86;52.08;99272.84;339516;29;1031;-71
2022/05/29 01:06:03;;;;;;;3.42;1.60;;;;;;;14.87;52.74;99273.66;339559;29;1305;-71
2022/05/29 01:06:15;;;;;;;3.47;1.63;;;;;;;14.87;52.78;99273.66;339584;29;1119;-72
2022/05/29 01:06:28;;;;;;;3.55;1.77;;;;;;;14.85;52.37;99270.28;338361;29;1052;-72
2022/05/29 01:06:40;;;;;;;2.83;1.80;;;;;;;14.84;52.15;99274.69;338013;29;1121;-71